sensor_id;sensor_type;location;lat;lon;timestamp;P1;durP1;ratioP1;P2;durP2;ratioP2
13795;SDS011;40911;51.552;9.874;2022-10-30T00:00:33;12.77;;;6.22;;
13795;SDS011;40911;51.552;9.874;2022-10-30T00:02:55;12.55;;;6.25;;
13795;SDS011;40911;51.552;9.874;2022-10-30T00:05:17;15.15;;;7.03;;
13795;SDS011;40911;51.552;9.874;2022-10-30T00:07:40;14.18;;;6.65;;
13795;SDS011;40911;51.552;9.874;2022-10-30T00:12:23;20.80;;;6.93;;
13795;SDS011;40911;51.552;9.874;2022-10-30T00:17:08;12.70;;;6.82;;
13795;SDS011;40911;51.552;9.874;2022-10-30T00:19:30;17.92;;;6.80;;
13795;SDS011;40911;51.552;9.874;2022-10-30T00:24:13;14.00;;;6.90;;
13795;SDS011;40911;51.552;9.874;2022-10-30T00:28:57;17.67;;;6.88;;
13795;SDS011;40911;51.552;9.874;2022-10-30T00:31:19;16.63;;;7.60;;
13795;SDS011;40911;51.552;9.874;2022-10-30T00:33:42;20.25;;;7.30;;
13795;SDS011;40911;51.552;9.874;2022-10-30T00:36:04;18.33;;;7.45;;
13795;SDS011;40911;51.552;9.874;2022-10-30T00:38:27;14.15;;;6.50;;
13795;SDS011;40911;51.552;9.874;2022-10-30T00:43:25;16.45;;;6.88;;
13795;SDS011;40911;51.552;9.874;2022-10-30T00:45:51;16.73;;;6.70;;
13795;SDS011;40911;51.552;9.874;2022-10-30T00:48:13;15.93;;;6.45;;
13795;SDS011;40911;51.552;9.874;2022-10-30T00:50:37;15.43;;;7.10;;
13795;SDS011;40911;51.552;9.874;2022-10-30T00:52:59;15.23;;;6.97;;
13795;SDS011;40911;51.552;9.874;2022-10-30T00:55:25;16.85;;;6.80;;
13795;SDS011;40911;51.552;9.874;2022-10-30T00:57:52;17.05;;;6.78;;
13795;SDS011;40911;51.552;9.874;2022-10-30T01:00:14;20.55;;;7.15;;
13795;SDS011;40911;51.552;9.874;2022-10-30T01:02:38;14.25;;;6.32;;
13795;SDS011;40911;51.552;9.874;2022-10-30T01:05:01;12.95;;;6.25;;
13795;SDS011;40911;51.552;9.874;2022-10-30T01:07:25;13.55;;;6.55;;
13795;SDS011;40911;51.552;9.874;2022-10-30T01:09:47;11.75;;;6.70;;
13795;SDS011;40911;51.552;9.874;2022-10-30T01:12:09;16.77;;;6.07;;
13795;SDS011;40911;51.552;9.874;2022-10-30T01:16:56;17.50;;;6.72;;
13795;SDS011;40911;51.552;9.874;2022-10-30T01:19:32;16.25;;;6.78;;
13795;SDS011;40911;51.552;9.874;2022-10-30T01:22:03;16.08;;;6.13;;
13795;SDS011;40911;51.552;9.874;2022-10-30T01:24:36;14.52;;;6.70;;
13795;SDS011;40911;51.552;9.874;2022-10-30T01:27:15;14.10;;;6.15;;
13795;SDS011;40911;51.552;9.874;2022-10-30T01:29:54;14.82;;;5.82;;
13795;SDS011;40911;51.552;9.874;2022-10-30T01:32:34;17.55;;;6.72;;
13795;SDS011;40911;51.552;9.874;2022-10-30T01:35:07;11.52;;;5.90;;
13795;SDS011;40911;51.552;9.874;2022-10-30T01:37:37;11.68;;;6.55;;
13795;SDS011;40911;51.552;9.874;2022-10-30T01:40:07;18.38;;;6.50;;
13795;SDS011;40911;51.552;9.874;2022-10-30T01:42:44;11.60;;;6.10;;
13795;SDS011;40911;51.552;9.874;2022-10-30T01:45:09;15.80;;;6.25;;
13795;SDS011;40911;51.552;9.874;2022-10-30T01:47:37;13.02;;;6.43;;
13795;SDS011;40911;51.552;9.874;2022-10-30T01:50:08;12.48;;;6.00;;
13795;SDS011;40911;51.552;9.874;2022-10-30T01:52:40;13.30;;;6.38;;
13795;SDS011;40911;51.552;9.874;2022-10-30T01:55:09;15.93;;;6.88;;
13795;SDS011;40911;51.552;9.874;2022-10-30T01:57:39;10.68;;;5.63;;
13795;SDS011;40911;51.552;9.874;2022-10-30T02:00:09;14.50;;;6.82;;
13795;SDS011;40911;51.552;9.874;2022-10-30T02:02:33;22.10;;;6.13;;
13795;SDS011;40911;51.552;9.874;2022-10-30T02:04:55;15.50;;;6.43;;
13795;SDS011;40911;51.552;9.874;2022-10-30T02:07:17;13.20;;;6.72;;
13795;SDS011;40911;51.552;9.874;2022-10-30T02:09:39;16.35;;;6.57;;
13795;SDS011;40911;51.552;9.874;2022-10-30T02:12:03;17.42;;;6.50;;
13795;SDS011;40911;51.552;9.874;2022-10-30T02:14:26;13.18;;;6.88;;
13795;SDS011;40911;51.552;9.874;2022-10-30T02:16:50;17.13;;;6.45;;
13795;SDS011;40911;51.552;9.874;2022-10-30T02:19:14;13.45;;;6.13;;
13795;SDS011;40911;51.552;9.874;2022-10-30T02:21:38;18.63;;;6.25;;
13795;SDS011;40911;51.552;9.874;2022-10-30T02:24:00;16.83;;;6.80;;
13795;SDS011;40911;51.552;9.874;2022-10-30T02:28:43;11.27;;;6.80;;
13795;SDS011;40911;51.552;9.874;2022-10-30T02:33:27;15.52;;;6.80;;
13795;SDS011;40911;51.552;9.874;2022-10-30T02:38:11;15.35;;;6.80;;
13795;SDS011;40911;51.552;9.874;2022-10-30T02:40:33;14.57;;;7.43;;
13795;SDS011;40911;51.552;9.874;2022-10-30T02:45:16;18.50;;;7.30;;
13795;SDS011;40911;51.552;9.874;2022-10-30T02:50:00;10.93;;;7.40;;
13795;SDS011;40911;51.552;9.874;2022-10-30T02:54:44;17.23;;;7.38;;
13795;SDS011;40911;51.552;9.874;2022-10-30T02:57:08;12.07;;;6.65;;
13795;SDS011;40911;51.552;9.874;2022-10-30T02:59:30;13.88;;;7.82;;
13795;SDS011;40911;51.552;9.874;2022-10-30T03:04:13;18.40;;;7.45;;
13795;SDS011;40911;51.552;9.874;2022-10-30T03:06:35;12.73;;;7.70;;
13795;SDS011;40911;51.552;9.874;2022-10-30T03:11:20;21.27;;;7.95;;
13795;SDS011;40911;51.552;9.874;2022-10-30T03:13:42;16.67;;;7.95;;
13795;SDS011;40911;51.552;9.874;2022-10-30T03:16:05;12.13;;;7.68;;
13795;SDS011;40911;51.552;9.874;2022-10-30T03:18:29;14.70;;;7.63;;
13795;SDS011;40911;51.552;9.874;2022-10-30T03:20:54;17.73;;;8.20;;
13795;SDS011;40911;51.552;9.874;2022-10-30T03:23:16;19.55;;;8.68;;
